createdAt,value
2023-10-26T00:02:13.605Z,56.61
2023-10-26T00:04:41.021Z,56.46
2023-10-26T00:07:08.376Z,56.60
2023-10-26T00:09:36.136Z,56.36
2023-10-26T00:12:04.032Z,56.86
2023-10-26T00:14:31.577Z,56.51
2023-10-26T00:16:59.089Z,56.64
2023-10-26T00:19:26.467Z,56.45
2023-10-26T00:22:49.541Z,56.88
2023-10-26T00:25:36.345Z,56.48
2023-10-26T00:28:03.734Z,57.02
2023-10-26T00:30:31.238Z,56.62
2023-10-26T00:32:58.858Z,56.55
2023-10-26T00:35:26.327Z,57.07
2023-10-26T00:37:53.926Z,56.49
2023-10-26T00:40:22.100Z,56.25
2023-10-26T00:42:49.605Z,56.40
2023-10-26T00:45:17.625Z,56.62
2023-10-26T00:47:45.939Z,56.57
2023-10-26T00:50:13.535Z,56.49
2023-10-26T00:52:41.337Z,56.48
2023-10-26T00:55:11.183Z,56.44
2023-10-26T00:57:39.178Z,56.26
2023-10-26T01:00:09.317Z,56.74
2023-10-26T01:02:37.811Z,56.68
2023-10-26T01:05:05.962Z,56.03
2023-10-26T01:07:33.458Z,55.90
2023-10-26T01:10:01.625Z,56.58
2023-10-26T01:12:29.390Z,56.61
2023-10-26T01:14:57.066Z,56.32
2023-10-26T01:17:25.458Z,56.52
2023-10-26T01:19:53.084Z,56.40
2023-10-26T01:22:20.624Z,56.54
2023-10-26T01:24:47.976Z,56.27
2023-10-26T01:27:16.074Z,56.38
2023-10-26T01:29:43.540Z,56.48
2023-10-26T01:32:11.233Z,56.18
2023-10-26T01:34:40.124Z,56.94
2023-10-26T01:37:07.718Z,56.86
2023-10-26T01:39:35.437Z,56.80
2023-10-26T01:42:02.964Z,56.69
2023-10-26T01:44:30.452Z,56.71
2023-10-26T01:46:58.067Z,56.93
2023-10-26T01:49:25.418Z,56.92
2023-10-26T01:51:52.760Z,56.79
2023-10-26T01:54:20.121Z,56.33
2023-10-26T01:56:47.608Z,56.63
2023-10-26T01:59:15.597Z,56.18
2023-10-26T02:01:43.536Z,56.41
2023-10-26T02:04:11.085Z,56.95
2023-10-26T02:06:38.573Z,56.67
2023-10-26T02:09:06.372Z,56.29
2023-10-26T02:11:33.883Z,56.21
2023-10-26T02:14:01.253Z,56.30
2023-10-26T02:16:28.611Z,56.29
2023-10-26T02:18:56.053Z,56.47
2023-10-26T02:21:23.618Z,55.85
2023-10-26T02:23:51.379Z,56.83
2023-10-26T02:26:19.173Z,56.32
2023-10-26T02:28:46.466Z,56.27
2023-10-26T02:31:14.234Z,56.34
2023-10-26T02:33:42.437Z,56.27
2023-10-26T02:36:11.093Z,56.22
2023-10-26T02:38:38.665Z,56.13
2023-10-26T02:41:06.729Z,56.17
2023-10-26T02:43:34.175Z,56.23
2023-10-26T02:46:03.651Z,56.27
2023-10-26T02:48:31.036Z,56.24
2023-10-26T02:50:58.463Z,56.14
2023-10-26T02:53:26.531Z,55.45
2023-10-26T02:55:54.839Z,56.15
2023-10-26T02:58:22.298Z,56.07
2023-10-26T03:00:49.953Z,55.68
2023-10-26T03:03:17.440Z,55.65
2023-10-26T03:05:45.157Z,56.00
2023-10-26T03:08:13.221Z,55.35
2023-10-26T03:10:40.771Z,55.34
2023-10-26T03:13:08.296Z,55.60
2023-10-26T03:15:35.661Z,55.38
2023-10-26T03:18:03.376Z,55.37
2023-10-26T03:20:33.162Z,55.10
2023-10-26T03:23:00.674Z,55.51
2023-10-26T03:25:28.852Z,55.92
2023-10-26T03:27:57.949Z,55.66
2023-10-26T03:30:25.477Z,55.63
2023-10-26T03:32:53.224Z,56.03
2023-10-26T03:35:20.855Z,55.12
2023-10-26T03:37:48.180Z,55.24
2023-10-26T03:40:16.168Z,54.82
2023-10-26T03:42:43.725Z,54.73
2023-10-26T03:45:11.624Z,54.90
2023-10-26T03:47:40.880Z,55.01
2023-10-26T03:50:08.671Z,54.91
2023-10-26T03:52:36.384Z,54.76
2023-10-26T03:55:05.756Z,54.83
2023-10-26T03:57:35.170Z,54.63
2023-10-26T04:00:04.627Z,54.36
2023-10-26T04:02:39.277Z,54.30
2023-10-26T04:05:07.801Z,54.94
2023-10-26T04:07:35.622Z,54.92
2023-10-26T04:10:06.884Z,54.74
2023-10-26T04:12:34.634Z,54.59
2023-10-26T04:15:02.361Z,54.62
2023-10-26T04:17:31.864Z,54.04
2023-10-26T04:19:59.095Z,54.47
2023-10-26T04:22:28.350Z,54.56
2023-10-26T04:24:55.671Z,55.69
2023-10-26T04:27:23.188Z,56.33
2023-10-26T04:29:51.548Z,56.85
2023-10-26T04:32:19.104Z,57.14
2023-10-26T04:34:46.588Z,57.27
2023-10-26T04:37:14.118Z,57.58
2023-10-26T04:39:45.020Z,57.83
2023-10-26T04:42:14.279Z,57.89
2023-10-26T04:44:42.193Z,57.68
2023-10-26T04:47:09.867Z,57.57
2023-10-26T04:49:37.399Z,57.44
2023-10-26T04:52:05.285Z,57.52
2023-10-26T04:54:33.339Z,57.46
2023-10-26T04:57:00.777Z,57.48
2023-10-26T04:59:28.132Z,57.32
2023-10-26T05:01:55.996Z,57.40
2023-10-26T05:04:23.405Z,57.39
2023-10-26T05:06:52.482Z,57.42
2023-10-26T05:09:20.324Z,58.16
2023-10-26T05:11:47.943Z,58.70
2023-10-26T05:14:15.363Z,59.71
2023-10-26T05:16:43.155Z,59.24
2023-10-26T05:19:10.571Z,59.74
2023-10-26T05:21:37.924Z,59.92
2023-10-26T05:24:05.798Z,58.89
2023-10-26T05:26:33.207Z,58.76
2023-10-26T05:29:00.547Z,58.52
2023-10-26T05:31:28.274Z,58.45
2023-10-26T05:33:56.045Z,58.80
2023-10-26T05:36:23.499Z,59.81
2023-10-26T05:38:51.790Z,59.30
2023-10-26T05:41:19.464Z,59.85
2023-10-26T05:43:46.937Z,60.76
2023-10-26T05:46:14.522Z,59.21
2023-10-26T05:48:42.135Z,59.38
2023-10-26T05:51:09.528Z,59.44
2023-10-26T05:53:37.078Z,60.01
2023-10-26T05:56:05.500Z,59.43
2023-10-26T05:58:32.968Z,59.44
2023-10-26T06:01:01.354Z,59.89
2023-10-26T06:03:29.072Z,59.49
2023-10-26T06:06:01.676Z,58.73
2023-10-26T06:08:29.216Z,58.46
2023-10-26T06:10:59.484Z,58.23
2023-10-26T06:13:27.197Z,59.05
2023-10-26T06:15:55.016Z,59.00
2023-10-26T06:18:22.425Z,60.14
2023-10-26T06:21:00.078Z,59.37
2023-10-26T06:23:29.361Z,59.51
2023-10-26T06:26:00.496Z,58.70
2023-10-26T06:28:29.029Z,58.54
2023-10-26T06:30:57.432Z,58.66
2023-10-26T06:33:26.811Z,57.63
2023-10-26T06:35:54.290Z,57.20
2023-10-26T06:38:22.082Z,56.99
2023-10-26T06:40:49.564Z,56.53
2023-10-26T06:43:16.937Z,57.38
2023-10-26T06:45:44.293Z,57.89
2023-10-26T06:48:12.803Z,57.83
2023-10-26T06:50:40.550Z,58.34
2023-10-26T06:53:08.088Z,57.90
2023-10-26T06:55:35.416Z,58.38
2023-10-26T06:58:02.805Z,58.37
2023-10-26T07:00:30.529Z,58.22
2023-10-26T07:02:58.511Z,58.26
2023-10-26T07:05:27.167Z,58.15
2023-10-26T07:07:54.555Z,57.91
2023-10-26T07:10:22.029Z,57.54
2023-10-26T07:12:49.373Z,57.12
2023-10-26T07:15:17.888Z,56.97
2023-10-26T07:17:45.841Z,57.31
2023-10-26T07:20:16.372Z,56.97
2023-10-26T07:22:44.151Z,56.79
2023-10-26T07:25:12.410Z,55.90
2023-10-26T07:27:47.553Z,56.56
2023-10-26T07:30:21.350Z,56.58
2023-10-26T07:32:50.339Z,56.68
2023-10-26T07:35:17.781Z,56.23
2023-10-26T07:37:55.144Z,56.05
2023-10-26T07:40:34.328Z,56.17
2023-10-26T07:43:01.854Z,56.62
2023-10-26T07:45:29.570Z,55.27
2023-10-26T07:48:01.965Z,55.20
2023-10-26T07:50:30.427Z,55.45
2023-10-26T07:52:58.366Z,55.34
2023-10-26T07:55:26.118Z,55.33
2023-10-26T07:57:53.394Z,55.16
2023-10-26T08:00:21.102Z,54.96
2023-10-26T08:02:48.724Z,54.01
2023-10-26T08:05:16.979Z,55.00
2023-10-26T08:07:46.092Z,54.18
2023-10-26T08:10:13.546Z,54.42
2023-10-26T08:12:41.374Z,54.27
2023-10-26T08:16:06.272Z,53.84
2023-10-26T08:17:56.455Z,54.27
2023-10-26T08:20:24.037Z,54.03
2023-10-26T08:22:51.839Z,53.46
2023-10-26T08:25:22.547Z,53.75
2023-10-26T08:27:52.252Z,53.70
2023-10-26T08:30:19.669Z,53.90
2023-10-26T08:32:47.531Z,53.37
2023-10-26T08:35:15.913Z,53.08
2023-10-26T08:37:43.478Z,53.18
2023-10-26T08:40:12.827Z,53.16
2023-10-26T08:42:41.010Z,52.92
2023-10-26T08:45:23.625Z,52.99
2023-10-26T08:47:52.227Z,52.51
2023-10-26T08:50:25.040Z,52.79
2023-10-26T08:52:55.598Z,52.94
2023-10-26T08:55:23.195Z,52.88
2023-10-26T08:57:56.134Z,52.68
2023-10-26T09:00:24.187Z,53.32
2023-10-26T09:02:52.390Z,53.29
2023-10-26T09:05:20.402Z,53.38
2023-10-26T09:07:47.921Z,53.96
2023-10-26T09:10:29.718Z,54.66
2023-10-26T09:13:07.654Z,53.30
2023-10-26T09:15:51.622Z,53.29
2023-10-26T09:18:19.432Z,52.79
2023-10-26T09:21:02.808Z,51.93
2023-10-26T09:23:32.727Z,52.13
2023-10-26T09:26:09.488Z,51.88
2023-10-26T09:28:54.194Z,51.75
2023-10-26T09:31:24.214Z,52.37
2023-10-26T09:33:52.787Z,52.83
2023-10-26T09:36:24.301Z,52.89
2023-10-26T09:38:52.422Z,52.69
2023-10-26T09:41:21.429Z,52.55
2023-10-26T09:43:49.494Z,52.68
2023-10-26T09:46:19.511Z,51.90
2023-10-26T09:48:48.126Z,51.74
2023-10-26T09:51:16.536Z,51.54
2023-10-26T09:53:48.391Z,51.30
2023-10-26T09:56:24.521Z,51.59
2023-10-26T09:58:54.464Z,50.69
2023-10-26T10:01:39.424Z,51.06
2023-10-26T10:04:12.483Z,51.17
2023-10-26T10:06:50.133Z,51.84
2023-10-26T10:09:25.956Z,50.94
2023-10-26T10:12:06.054Z,51.34
2023-10-26T10:14:48.394Z,50.78
2023-10-26T10:17:20.528Z,51.64
2023-10-26T10:20:08.913Z,51.18
2023-10-26T10:22:38.460Z,50.40
2023-10-26T10:25:06.738Z,50.75
2023-10-26T10:27:35.282Z,50.88
2023-10-26T10:30:09.796Z,51.36
2023-10-26T10:32:46.695Z,51.82
2023-10-26T10:35:28.871Z,51.04
2023-10-26T10:38:22.576Z,49.98
2023-10-26T10:40:56.368Z,50.70
2023-10-26T10:43:47.451Z,49.95
2023-10-26T10:46:27.723Z,50.51
2023-10-26T10:49:06.034Z,49.98
2023-10-26T10:51:45.380Z,50.11
2023-10-26T10:54:33.590Z,50.13
2023-10-26T10:57:06.453Z,49.58
2023-10-26T10:59:34.001Z,49.50
2023-10-26T11:02:15.239Z,48.93
2023-10-26T11:05:02.437Z,49.19
2023-10-26T11:07:37.242Z,49.46
2023-10-26T11:10:05.316Z,52.75
2023-10-26T11:12:34.302Z,53.35
2023-10-26T11:15:02.761Z,53.96
2023-10-26T11:17:33.617Z,55.25
2023-10-26T11:20:01.023Z,55.51
2023-10-26T11:22:29.475Z,55.86
2023-10-26T11:24:57.000Z,55.04
2023-10-26T11:27:24.425Z,54.66
2023-10-26T11:30:09.785Z,54.78
2023-10-26T11:32:37.422Z,55.28
2023-10-26T11:35:10.417Z,55.79
2023-10-26T11:37:49.042Z,56.13
2023-10-26T11:40:18.116Z,55.90
2023-10-26T11:43:07.378Z,55.69
2023-10-26T11:45:51.817Z,55.58
2023-10-26T11:48:29.006Z,55.81
2023-10-26T11:50:56.690Z,55.80
2023-10-26T11:53:25.299Z,55.56
2023-10-26T11:55:53.642Z,55.16
2023-10-26T11:58:20.977Z,55.10
2023-10-26T12:00:48.364Z,55.15
2023-10-26T12:03:16.315Z,54.74
2023-10-26T12:05:43.923Z,54.61
2023-10-26T12:08:11.975Z,54.57
2023-10-26T12:10:41.627Z,54.40
2023-10-26T12:13:09.068Z,54.18
2023-10-26T12:15:37.614Z,53.74
2023-10-26T12:18:05.670Z,53.52
2023-10-26T12:20:33.509Z,53.65
2023-10-26T12:23:01.093Z,53.41
2023-10-26T12:25:28.472Z,53.42
2023-10-26T12:28:21.745Z,53.23
2023-10-26T12:30:43.644Z,53.14
2023-10-26T12:33:11.375Z,53.36
2023-10-26T12:35:38.725Z,53.38
2023-10-26T12:38:06.030Z,53.22
2023-10-26T12:40:33.902Z,53.70
2023-10-26T12:43:01.588Z,53.53
2023-10-26T12:45:29.123Z,53.53
2023-10-26T12:47:57.201Z,53.44
2023-10-26T12:50:24.657Z,53.60
2023-10-26T12:52:52.263Z,53.65
2023-10-26T12:55:22.289Z,54.01
2023-10-26T12:57:50.355Z,54.48
2023-10-26T13:00:18.263Z,54.26
2023-10-26T13:02:45.682Z,54.05
2023-10-26T13:05:13.113Z,53.42
2023-10-26T13:07:40.481Z,53.55
2023-10-26T13:10:08.573Z,52.40
2023-10-26T13:12:36.132Z,53.07
2023-10-26T13:15:05.306Z,53.36
2023-10-26T13:17:34.091Z,53.67
2023-10-26T13:20:02.010Z,54.03
2023-10-26T13:22:30.774Z,53.71
2023-10-26T13:24:58.301Z,53.99
2023-10-26T13:27:27.056Z,53.72
2023-10-26T13:29:54.813Z,53.95
2023-10-26T13:32:23.129Z,53.58
2023-10-26T13:34:50.499Z,53.84
2023-10-26T13:37:17.846Z,54.33
2023-10-26T13:39:45.637Z,53.96
2023-10-26T13:42:13.138Z,53.79
2023-10-26T13:44:40.467Z,54.10
2023-10-26T13:47:07.828Z,53.61
2023-10-26T13:49:35.167Z,53.76
2023-10-26T13:52:02.669Z,53.58
2023-10-26T13:54:30.162Z,53.75
2023-10-26T13:56:58.013Z,53.71
2023-10-26T13:59:25.762Z,53.96
2023-10-26T14:01:53.602Z,53.56
2023-10-26T14:04:21.096Z,54.34
2023-10-26T14:06:48.801Z,53.59
2023-10-26T14:09:16.917Z,53.63
2023-10-26T14:11:44.612Z,53.66
2023-10-26T14:14:13.500Z,53.63
2023-10-26T14:16:41.187Z,53.75
2023-10-26T14:19:10.241Z,53.98
2023-10-26T14:21:38.024Z,54.28
2023-10-26T14:24:05.682Z,54.80
2023-10-26T14:26:33.016Z,53.95
2023-10-26T14:29:00.855Z,54.08
2023-10-26T14:31:29.244Z,54.59
2023-10-26T14:33:56.914Z,54.34
2023-10-26T14:36:24.413Z,54.30
2023-10-26T14:38:52.285Z,54.63
2023-10-26T14:41:19.616Z,54.72
2023-10-26T14:43:47.383Z,54.35
2023-10-26T14:46:15.193Z,54.79
2023-10-26T14:48:42.792Z,55.14
2023-10-26T14:51:10.286Z,55.75
2023-10-26T14:53:37.882Z,56.53
2023-10-26T14:56:05.890Z,56.68
2023-10-26T14:58:33.441Z,56.39
2023-10-26T15:01:01.022Z,57.11
2023-10-26T15:03:28.614Z,57.90
2023-10-26T15:05:59.978Z,57.36
2023-10-26T15:08:27.348Z,57.03
2023-10-26T15:10:55.626Z,56.75
2023-10-26T15:13:43.879Z,56.94
2023-10-26T15:16:11.338Z,56.36
2023-10-26T15:18:38.729Z,56.42
2023-10-26T15:21:06.996Z,55.94
2023-10-26T15:23:34.418Z,55.98
2023-10-26T15:26:06.559Z,56.42
2023-10-26T15:28:34.385Z,57.02
2023-10-26T15:31:05.538Z,56.71
2023-10-26T15:33:32.891Z,56.75
2023-10-26T15:36:01.521Z,56.88
2023-10-26T15:38:29.847Z,56.14
2023-10-26T15:41:06.155Z,56.27
2023-10-26T15:43:34.711Z,56.02
2023-10-26T15:46:04.434Z,56.52
2023-10-26T15:49:32.291Z,56.00
2023-10-26T15:51:20.558Z,56.30
2023-10-26T15:53:48.837Z,56.52
2023-10-26T15:56:16.352Z,55.96
2023-10-26T15:58:43.928Z,56.25
2023-10-26T16:01:12.255Z,55.92
2023-10-26T16:03:40.056Z,55.91
2023-10-26T16:06:13.377Z,56.19
2023-10-26T16:08:42.008Z,55.68
2023-10-26T16:11:14.685Z,55.54
2023-10-26T16:13:46.159Z,56.04
2023-10-26T16:16:14.288Z,56.19
2023-10-26T16:18:47.393Z,55.46
2023-10-26T16:21:16.439Z,55.13
2023-10-26T16:23:44.336Z,55.26
2023-10-26T16:26:11.688Z,55.02
2023-10-26T16:28:39.656Z,54.51
2023-10-26T16:31:08.474Z,54.14
2023-10-26T16:33:38.176Z,54.50
2023-10-26T16:36:06.013Z,54.49
2023-10-26T16:38:33.986Z,54.61
2023-10-26T16:41:01.875Z,54.43
2023-10-26T16:43:29.245Z,54.52
2023-10-26T16:45:57.777Z,54.42
2023-10-26T16:48:27.897Z,54.83
2023-10-26T16:50:57.636Z,54.47
2023-10-26T16:53:31.327Z,55.50
2023-10-26T16:56:04.953Z,55.41
2023-10-26T16:58:33.118Z,55.07
2023-10-26T17:01:00.856Z,54.88
2023-10-26T17:03:28.762Z,54.58
2023-10-26T17:05:56.293Z,54.88
2023-10-26T17:08:23.987Z,54.32
2023-10-26T17:10:52.003Z,52.07
2023-10-26T17:13:21.457Z,51.44
2023-10-26T17:15:52.835Z,50.93
2023-10-26T17:18:21.642Z,50.44
2023-10-26T17:20:50.072Z,49.83
2023-10-26T17:23:17.777Z,50.51
2023-10-26T17:25:45.330Z,50.30
2023-10-26T17:28:12.745Z,49.52
2023-10-26T17:30:41.048Z,49.77
2023-10-26T17:33:12.587Z,49.28
2023-10-26T17:35:52.657Z,49.98
2023-10-26T17:38:20.051Z,50.54
2023-10-26T17:40:49.254Z,52.00
2023-10-26T17:43:16.640Z,52.98
2023-10-26T17:45:54.743Z,53.49
2023-10-26T17:48:22.472Z,53.83
2023-10-26T17:50:49.900Z,54.34
2023-10-26T17:53:17.412Z,54.00
2023-10-26T17:55:44.889Z,54.28
2023-10-26T17:58:13.207Z,54.79
2023-10-26T18:00:41.131Z,54.58
2023-10-26T18:03:08.717Z,54.69
2023-10-26T18:05:36.923Z,54.60
2023-10-26T18:08:04.850Z,55.29
2023-10-26T18:10:32.466Z,54.72
2023-10-26T18:13:00.698Z,54.17
2023-10-26T18:15:28.339Z,54.27
2023-10-26T18:17:55.708Z,54.43
2023-10-26T18:20:23.070Z,54.46
2023-10-26T18:22:50.375Z,54.98
2023-10-26T18:25:17.795Z,55.21
2023-10-26T18:27:45.875Z,55.52
2023-10-26T18:30:13.545Z,55.97
2023-10-26T18:32:40.957Z,56.08
2023-10-26T18:35:09.228Z,55.57
2023-10-26T18:37:37.396Z,55.85
2023-10-26T18:40:07.202Z,55.60
2023-10-26T18:42:34.570Z,55.46
2023-10-26T18:45:02.384Z,55.50
2023-10-26T18:47:31.053Z,54.87
2023-10-26T18:49:58.706Z,55.82
2023-10-26T18:52:26.438Z,57.00
2023-10-26T18:54:53.791Z,57.14
2023-10-26T18:57:21.163Z,57.19
2023-10-26T18:59:48.605Z,56.84
2023-10-26T19:02:16.106Z,56.72
2023-10-26T19:04:43.491Z,56.81
2023-10-26T19:07:12.359Z,56.74
2023-10-26T19:09:39.837Z,57.09
2023-10-26T19:12:07.521Z,56.76
2023-10-26T19:14:35.019Z,56.96
2023-10-26T19:17:04.839Z,56.65
2023-10-26T19:19:32.314Z,57.19
2023-10-26T19:22:00.373Z,57.33
2023-10-26T19:24:27.784Z,56.97
2023-10-26T19:26:55.109Z,57.07
2023-10-26T19:29:22.423Z,57.32
2023-10-26T19:31:49.767Z,57.54
2023-10-26T19:34:17.552Z,57.57
2023-10-26T19:36:45.544Z,57.18
2023-10-26T19:39:13.301Z,57.64
2023-10-26T19:41:41.137Z,57.77
2023-10-26T19:44:10.862Z,57.55
2023-10-26T19:46:40.150Z,57.53
2023-10-26T19:49:08.431Z,57.19
2023-10-26T19:51:36.049Z,57.17
2023-10-26T19:54:05.102Z,56.79
2023-10-26T19:56:32.451Z,57.28
2023-10-26T19:58:59.780Z,57.15
2023-10-26T20:01:27.337Z,56.59
2023-10-26T20:03:55.202Z,56.56
2023-10-26T20:06:22.975Z,56.92
2023-10-26T20:08:50.204Z,56.89
2023-10-26T20:11:17.612Z,56.57
2023-10-26T20:13:48.472Z,57.27
2023-10-26T20:16:16.319Z,57.45
2023-10-26T20:18:46.111Z,57.18
2023-10-26T20:21:13.504Z,56.71
2023-10-26T20:23:41.104Z,57.30
2023-10-26T20:26:08.954Z,57.15
2023-10-26T20:28:36.462Z,56.88
2023-10-26T20:31:05.039Z,56.45
2023-10-26T20:33:32.709Z,56.94
2023-10-26T20:36:00.176Z,56.95
2023-10-26T20:38:28.009Z,56.81
2023-10-26T20:40:55.967Z,56.88
2023-10-26T20:43:23.828Z,56.85
2023-10-26T20:46:01.450Z,57.24
2023-10-26T20:48:30.481Z,56.90
2023-10-26T20:50:59.738Z,56.36
2023-10-26T20:53:31.026Z,56.55
2023-10-26T20:55:59.704Z,56.85
2023-10-26T20:58:27.206Z,56.88
2023-10-26T21:00:54.695Z,56.55
2023-10-26T21:03:22.953Z,56.80
2023-10-26T21:05:51.732Z,56.73
2023-10-26T21:08:21.026Z,56.68
2023-10-26T21:10:48.953Z,56.49
2023-10-26T21:13:16.520Z,56.52
2023-10-26T21:15:44.267Z,56.10
2023-10-26T21:18:12.215Z,56.39
2023-10-26T21:20:41.144Z,56.65
2023-10-26T21:23:08.827Z,56.11
2023-10-26T21:25:36.320Z,56.56
2023-10-26T21:28:04.113Z,56.15
2023-10-26T21:30:31.419Z,57.72
2023-10-26T21:32:58.938Z,57.22
2023-10-26T21:35:28.515Z,57.59
2023-10-26T21:37:57.074Z,57.47
2023-10-26T21:40:25.012Z,57.70
2023-10-26T21:42:52.809Z,58.05
2023-10-26T21:45:20.172Z,57.58
2023-10-26T21:47:47.659Z,57.71
2023-10-26T21:50:15.129Z,58.20
2023-10-26T21:52:42.457Z,58.09
2023-10-26T21:55:09.860Z,58.08
2023-10-26T21:57:37.302Z,58.24
2023-10-26T22:00:07.412Z,58.28
2023-10-26T22:02:41.240Z,58.14
2023-10-26T22:05:09.514Z,58.39
2023-10-26T22:07:36.856Z,58.28
2023-10-26T22:10:06.922Z,58.50
2023-10-26T22:12:35.779Z,58.44
2023-10-26T22:15:04.873Z,58.24
2023-10-26T22:17:32.340Z,58.34
2023-10-26T22:20:00.857Z,58.25
2023-10-26T22:22:28.357Z,58.45
2023-10-26T22:24:55.882Z,57.94
2023-10-26T22:27:23.808Z,58.25
2023-10-26T22:29:50.967Z,58.73
2023-10-26T22:32:18.327Z,58.06
2023-10-26T22:34:45.817Z,57.45
2023-10-26T22:37:13.305Z,58.12
2023-10-26T22:39:41.301Z,57.54
2023-10-26T22:42:08.906Z,57.59
2023-10-26T22:44:36.492Z,57.42
2023-10-26T22:47:04.350Z,57.36
2023-10-26T22:49:31.782Z,57.23
2023-10-26T22:51:59.130Z,57.24
2023-10-26T22:54:26.513Z,57.16
2023-10-26T22:56:54.009Z,57.25
2023-10-26T22:59:22.002Z,56.91
2023-10-26T23:01:49.346Z,57.34
2023-10-26T23:04:17.738Z,57.30
2023-10-26T23:06:45.374Z,57.63
2023-10-26T23:09:15.216Z,57.63
2023-10-26T23:11:43.055Z,57.06
2023-10-26T23:14:11.145Z,57.24
2023-10-26T23:16:39.626Z,56.68
2023-10-26T23:19:07.065Z,57.19
2023-10-26T23:21:34.528Z,57.24
2023-10-26T23:24:04.664Z,57.04
2023-10-26T23:26:35.333Z,57.00
2023-10-26T23:29:04.644Z,57.08
2023-10-26T23:31:32.076Z,56.66
2023-10-26T23:33:59.473Z,56.66
2023-10-26T23:36:27.019Z,56.87
2023-10-26T23:38:54.747Z,56.57
2023-10-26T23:41:22.391Z,57.01
2023-10-26T23:43:49.838Z,56.58
2023-10-26T23:46:17.219Z,56.23
2023-10-26T23:48:44.794Z,56.21
2023-10-26T23:51:12.316Z,56.32
2023-10-26T23:53:39.809Z,56.57
2023-10-26T23:56:08.005Z,56.44
2023-10-26T23:58:35.341Z,56.71
